X  Fermer Données météorologiques d'aviation de Metar     LFPN Toussus-le-Noble Airport
Température
7°C Température
1°C Point de rosée
66% Humidité



Vent
10 KM/H
6 MPH
3 M/S
5 KTS



30°
NNE
Conditions actuelles

Clair Clair
Pression 1025.06 (hPa) - 30.27 (inHg)
Visibilité 6 (mile) - 9.7 (km)
Aéroport
Code de l'aéroport LFPN

Emplacement: Toussus-le-Noble Airport
Distance: 14 (km)

Metar:
LFPN 221000Z AUTO 03005KT 360V070 CAVOK 07/01 Q1025 NOSIG

Temps: 22-04-2024 12:00 CEST